createdAt,value
2019-02-12T00:02:29.937Z,5.87
2019-02-12T00:04:58.412Z,5.90
2019-02-12T00:07:27.190Z,6.47
2019-02-12T00:09:55.610Z,6.50
2019-02-12T00:12:24.215Z,7.03
2019-02-12T00:14:55.766Z,6.67
2019-02-12T00:17:24.507Z,6.47
2019-02-12T00:19:52.957Z,6.63
2019-02-12T00:22:22.996Z,6.77
2019-02-12T00:24:51.378Z,6.13
2019-02-12T00:27:19.978Z,5.53
2019-02-12T00:29:50.648Z,6.13
2019-02-12T00:32:22.951Z,6.50
2019-02-12T00:34:51.530Z,5.60
2019-02-12T00:37:23.290Z,6.53
2019-02-12T00:39:51.623Z,6.80
2019-02-12T00:42:20.952Z,7.43
2019-02-12T00:44:53.754Z,7.77
2019-02-12T00:47:23.880Z,7.77
2019-02-12T00:49:54.313Z,8.00
2019-02-12T00:52:25.825Z,8.27
2019-02-12T00:54:54.767Z,8.37
2019-02-12T00:57:23.428Z,8.00
2019-02-12T00:59:52.162Z,7.80
2019-02-12T01:02:20.767Z,8.27
2019-02-12T01:04:52.923Z,7.33
2019-02-12T01:07:21.628Z,7.43
2019-02-12T01:09:51.744Z,6.80
2019-02-12T01:12:22.290Z,8.13
2019-02-12T01:14:52.296Z,7.30
2019-02-12T01:17:27.140Z,7.40
2019-02-12T01:19:53.104Z,6.23
2019-02-12T01:22:21.391Z,5.97
2019-02-12T01:24:51.808Z,6.20
2019-02-12T01:27:20.265Z,6.90
2019-02-12T01:29:48.752Z,7.07
2019-02-12T01:32:17.334Z,7.03
2019-02-12T01:34:46.022Z,7.03
2019-02-12T01:37:14.509Z,6.17
2019-02-12T01:39:42.982Z,5.60
2019-02-12T01:42:11.400Z,6.27
2019-02-12T01:44:39.842Z,5.73
2019-02-12T01:47:08.196Z,7.40
2019-02-12T01:49:36.662Z,6.43
2019-02-12T01:52:05.323Z,6.47
2019-02-12T01:54:42.695Z,5.77
2019-02-12T01:57:11.058Z,5.90
2019-02-12T01:59:39.452Z,6.57
2019-02-12T02:02:07.805Z,6.70
2019-02-12T02:04:36.263Z,6.13
2019-02-12T02:07:04.880Z,6.00
2019-02-12T02:09:33.304Z,6.03
2019-02-12T02:12:01.951Z,6.60
2019-02-12T02:14:30.295Z,6.53
2019-02-12T02:16:58.728Z,6.13
2019-02-12T02:19:27.104Z,7.00
2019-02-12T02:21:55.439Z,6.73
2019-02-12T02:24:24.298Z,6.67
2019-02-12T02:26:52.794Z,7.00
2019-02-12T02:29:21.266Z,7.63
2019-02-12T02:31:50.263Z,7.37
2019-02-12T02:34:18.833Z,6.47
2019-02-12T02:36:47.316Z,6.67
2019-02-12T02:39:15.840Z,6.70
2019-02-12T02:41:44.344Z,6.60
2019-02-12T02:44:13.055Z,5.63
2019-02-12T02:46:41.742Z,7.30
2019-02-12T02:49:10.305Z,6.97
2019-02-12T02:51:53.512Z,6.70
2019-02-12T02:54:17.653Z,6.87
2019-02-12T02:56:46.004Z,6.63
2019-02-12T02:59:14.449Z,6.63
2019-02-12T03:01:42.740Z,6.67
2019-02-12T03:04:11.191Z,7.37
2019-02-12T03:06:39.567Z,6.40
2019-02-12T03:09:08.305Z,6.97
2019-02-12T03:11:38.441Z,7.30
2019-02-12T03:14:07.018Z,7.83
2019-02-12T03:16:35.515Z,7.30
2019-02-12T03:19:03.942Z,7.70
2019-02-12T03:21:32.525Z,6.90
2019-02-12T03:24:01.059Z,7.47
2019-02-12T03:26:29.986Z,7.37
2019-02-12T03:28:58.502Z,7.10
2019-02-12T03:31:27.285Z,7.27
2019-02-12T03:33:55.785Z,7.27
2019-02-12T03:36:24.289Z,7.37
2019-02-12T03:38:52.624Z,6.93
2019-02-12T03:41:23.562Z,7.97
2019-02-12T03:43:52.188Z,6.73
2019-02-12T03:46:20.606Z,7.33
2019-02-12T03:48:49.018Z,7.07
2019-02-12T03:51:17.526Z,6.33
2019-02-12T03:53:45.877Z,6.73
2019-02-12T03:56:14.446Z,7.07
2019-02-12T03:58:42.962Z,6.67
2019-02-12T04:01:11.548Z,7.50
2019-02-12T04:03:40.132Z,6.73
2019-02-12T04:06:08.653Z,7.60
2019-02-12T04:08:37.036Z,6.97
2019-02-12T04:11:05.455Z,7.33
2019-02-12T04:13:33.833Z,7.63
2019-02-12T04:16:02.692Z,7.30
2019-02-12T04:18:31.126Z,7.33
2019-02-12T04:20:59.776Z,7.70
2019-02-12T04:23:28.335Z,6.77
2019-02-12T04:25:56.933Z,7.27
2019-02-12T04:28:25.753Z,6.33
2019-02-12T04:30:54.215Z,6.87
2019-02-12T04:33:22.688Z,6.70
2019-02-12T04:36:05.720Z,7.50
2019-02-12T04:38:34.166Z,6.03
2019-02-12T04:41:02.570Z,6.97
2019-02-12T04:43:31.210Z,7.20
2019-02-12T04:45:59.910Z,6.67
2019-02-12T04:48:28.369Z,6.60
2019-02-12T04:50:56.821Z,6.67
2019-02-12T04:53:25.173Z,6.60
2019-02-12T04:55:53.688Z,7.13
2019-02-12T04:58:23.912Z,6.67
2019-02-12T05:00:52.273Z,7.50
2019-02-12T05:03:20.774Z,6.40
2019-02-12T05:05:49.807Z,7.20
2019-02-12T05:08:18.496Z,7.43
2019-02-12T05:10:56.038Z,7.27
2019-02-12T05:13:24.708Z,6.70
2019-02-12T05:15:53.373Z,6.93
2019-02-12T05:18:22.058Z,7.23
2019-02-12T05:20:50.552Z,5.93
2019-02-12T05:23:18.895Z,6.33
2019-02-12T05:25:47.612Z,5.97
2019-02-12T05:28:16.692Z,6.67
2019-02-12T05:30:45.399Z,5.93
2019-02-12T05:33:14.006Z,6.50
2019-02-12T05:35:42.860Z,5.33
2019-02-12T05:38:11.396Z,6.10
2019-02-12T05:40:39.959Z,6.27
2019-02-12T05:43:08.675Z,6.60
2019-02-12T05:45:37.396Z,6.43
2019-02-12T05:48:06.638Z,6.53
2019-02-12T05:50:35.313Z,5.80
2019-02-12T05:53:06.723Z,5.87
2019-02-12T05:55:35.541Z,6.10
2019-02-12T05:58:03.914Z,6.33
2019-02-12T06:00:34.299Z,6.40
2019-02-12T06:03:02.758Z,6.27
2019-02-12T06:05:31.297Z,6.20
2019-02-12T06:07:59.590Z,5.87
2019-02-12T06:10:28.245Z,7.03
2019-02-12T06:12:56.673Z,6.60
2019-02-12T06:15:25.180Z,5.40
2019-02-12T06:17:53.623Z,5.90
2019-02-12T06:20:23.623Z,5.63
2019-02-12T06:22:52.321Z,5.43
2019-02-12T06:25:21.149Z,5.10
2019-02-12T06:27:49.672Z,5.40
2019-02-12T06:30:18.195Z,5.60
2019-02-12T06:32:46.624Z,5.43
2019-02-12T06:35:15.133Z,7.35
2019-02-12T06:37:43.626Z,6.23
2019-02-12T06:40:12.237Z,5.80
2019-02-12T06:42:40.716Z,6.37
2019-02-12T06:45:13.896Z,5.37
2019-02-12T06:47:42.646Z,6.87
2019-02-12T06:50:12.235Z,5.87
2019-02-12T06:52:40.821Z,6.07
2019-02-12T06:55:10.579Z,6.90
2019-02-12T06:57:39.156Z,7.00
2019-02-12T07:00:13.702Z,7.37
2019-02-12T07:03:08.099Z,6.40
2019-02-12T07:05:37.366Z,7.03
2019-02-12T07:08:40.789Z,7.03
2019-02-12T07:11:24.659Z,6.33
2019-02-12T07:13:59.519Z,5.87
2019-02-12T07:16:36.720Z,6.17
2019-02-12T07:19:31.161Z,6.20
2019-02-12T07:22:05.462Z,7.50
2019-02-12T07:24:37.071Z,7.30
2019-02-12T07:27:14.344Z,6.93
2019-02-12T07:29:58.164Z,6.80
2019-02-12T07:32:35.562Z,6.40
2019-02-12T07:35:24.117Z,7.20
2019-02-12T07:37:58.832Z,7.83
2019-02-12T07:40:33.223Z,7.93
2019-02-12T07:43:24.705Z,7.10
2019-02-12T07:46:21.657Z,6.37
2019-02-12T07:48:56.105Z,5.60
2019-02-12T07:51:33.633Z,5.53
2019-02-12T07:54:23.391Z,5.80
2019-02-12T07:57:26.873Z,5.73
2019-02-12T07:59:59.257Z,6.77
2019-02-12T08:03:04.825Z,6.47
2019-02-12T08:06:00.729Z,5.90
2019-02-12T08:08:53.770Z,6.10
2019-02-12T08:11:46.314Z,6.50
2019-02-12T08:14:38.808Z,5.70
2019-02-12T08:17:13.223Z,6.30
2019-02-12T08:19:55.913Z,6.57
2019-02-12T08:22:43.976Z,5.67
2019-02-12T08:25:38.490Z,5.67
2019-02-12T08:28:12.930Z,5.37
2019-02-12T08:30:47.631Z,5.43
2019-02-12T08:33:19.360Z,4.90
2019-02-12T08:35:57.330Z,4.63
2019-02-12T08:38:32.986Z,4.77
2019-02-12T08:41:11.216Z,4.83
2019-02-12T08:43:59.467Z,4.70
2019-02-12T08:47:00.023Z,4.07
2019-02-12T08:49:49.560Z,4.83
2019-02-12T08:52:21.266Z,4.70
2019-02-12T08:55:04.881Z,4.73
2019-02-12T08:57:42.326Z,4.37
2019-02-12T09:00:20.074Z,3.80
2019-02-12T09:02:54.793Z,3.77
2019-02-12T09:05:42.974Z,4.03
2019-02-12T09:08:23.575Z,3.77
2019-02-12T09:10:55.305Z,3.77
2019-02-12T09:13:35.829Z,3.30
2019-02-12T09:16:19.568Z,3.33
2019-02-12T09:18:51.489Z,3.90
2019-02-12T09:21:48.405Z,3.73
2019-02-12T09:24:38.096Z,3.40
2019-02-12T09:27:32.531Z,3.63
2019-02-12T09:30:11.143Z,3.63
2019-02-12T09:32:51.906Z,3.47
2019-02-12T09:35:29.669Z,4.07
2019-02-12T09:38:04.352Z,3.40
2019-02-12T09:40:36.230Z,3.80
2019-02-12T09:43:13.909Z,3.80
2019-02-12T09:45:45.754Z,3.87
2019-02-12T09:48:23.073Z,3.20
2019-02-12T09:51:15.975Z,3.10
2019-02-12T09:53:47.855Z,3.60
2019-02-12T09:56:28.832Z,3.70
2019-02-12T09:59:18.632Z,3.00
2019-02-12T10:02:11.192Z,3.20
2019-02-12T10:05:11.669Z,3.03
2019-02-12T10:07:43.364Z,4.40
2019-02-12T10:10:45.462Z,3.30
2019-02-12T10:13:22.728Z,4.37
2019-02-12T10:16:02.877Z,3.23
2019-02-12T10:18:34.610Z,3.60
2019-02-12T10:21:18.310Z,3.50
2019-02-12T10:23:56.055Z,3.37
2019-02-12T10:26:33.960Z,6.60
2019-02-12T10:29:17.086Z,7.67
2019-02-12T10:31:44.657Z,5.70
2019-02-12T10:34:13.142Z,3.50
2019-02-12T10:36:41.554Z,3.73
2019-02-12T10:41:39.013Z,5.07
2019-02-12T10:44:07.501Z,5.73
2019-02-12T10:46:35.933Z,3.70
2019-02-12T10:49:04.360Z,25.67
2019-02-12T10:51:33.119Z,8.90
2019-02-12T10:54:01.945Z,5.03
2019-02-12T10:56:30.472Z,7.37
2019-02-12T10:58:58.996Z,4.47
2019-02-12T11:01:27.789Z,3.27
2019-02-12T11:03:56.404Z,3.20
2019-02-12T11:06:25.109Z,3.40
2019-02-12T11:08:53.795Z,3.23
2019-02-12T11:11:22.247Z,3.10
2019-02-12T11:13:50.625Z,3.20
2019-02-12T11:16:19.241Z,3.30
2019-02-12T11:18:47.823Z,3.10
2019-02-12T11:21:16.358Z,3.20
2019-02-12T11:23:44.949Z,3.10
2019-02-12T11:26:13.499Z,2.90
2019-02-12T11:28:41.934Z,3.00
2019-02-12T11:31:10.330Z,2.87
2019-02-12T11:33:38.841Z,3.13
2019-02-12T11:36:07.297Z,2.53
2019-02-12T11:38:35.683Z,2.57
2019-02-12T11:41:04.181Z,3.07
2019-02-12T11:43:32.650Z,2.63
2019-02-12T11:46:01.256Z,2.80
2019-02-12T11:48:29.758Z,2.80
2019-02-12T11:50:58.178Z,2.97
2019-02-12T11:53:28.058Z,3.10
2019-02-12T11:55:56.817Z,3.63
2019-02-12T11:58:25.219Z,4.10
2019-02-12T12:00:55.195Z,3.63
2019-02-12T12:03:23.696Z,3.37
2019-02-12T12:05:52.161Z,3.13
2019-02-12T12:08:20.700Z,3.50
2019-02-12T12:10:49.167Z,3.50
2019-02-12T12:13:17.539Z,2.90
2019-02-12T12:15:46.128Z,2.97
2019-02-12T12:18:14.535Z,3.00
2019-02-12T12:20:43.280Z,2.97
2019-02-12T12:23:11.666Z,3.00
2019-02-12T12:25:40.054Z,2.57
2019-02-12T12:28:08.476Z,2.13
2019-02-12T12:30:37.091Z,2.70
2019-02-12T12:33:05.610Z,2.30
2019-02-12T12:35:33.945Z,2.70
2019-02-12T12:38:02.275Z,2.60
2019-02-12T12:40:30.642Z,2.30
2019-02-12T12:42:59.422Z,2.80
2019-02-12T12:45:28.078Z,2.80
2019-02-12T12:47:58.165Z,2.70
2019-02-12T12:50:26.591Z,2.50
2019-02-12T12:52:55.243Z,2.37
2019-02-12T12:55:25.330Z,2.63
2019-02-12T12:57:53.643Z,2.07
2019-02-12T13:00:22.049Z,2.60
2019-02-12T13:02:50.606Z,3.07
2019-02-12T13:05:19.546Z,2.70
2019-02-12T13:07:48.474Z,2.83
2019-02-12T13:10:17.848Z,2.50
2019-02-12T13:12:46.371Z,2.20
2019-02-12T13:15:15.535Z,3.40
2019-02-12T13:17:44.139Z,2.53
2019-02-12T13:20:15.185Z,2.30
2019-02-12T13:22:44.034Z,2.83
2019-02-12T13:25:12.416Z,3.00
2019-02-12T13:27:40.747Z,2.60
2019-02-12T13:30:16.857Z,1.80
2019-02-12T13:32:45.307Z,2.50
2019-02-12T13:35:13.629Z,2.10
2019-02-12T13:37:42.219Z,2.57
2019-02-12T13:40:13.918Z,2.13
2019-02-12T13:42:42.578Z,1.37
2019-02-12T13:45:16.180Z,1.57
2019-02-12T13:47:44.828Z,1.80
2019-02-12T13:50:13.575Z,2.00
2019-02-12T13:52:42.094Z,1.60
2019-02-12T13:55:17.355Z,1.40
2019-02-12T13:57:41.959Z,1.50
2019-02-12T14:00:15.784Z,1.20
2019-02-12T14:02:44.169Z,1.10
2019-02-12T14:05:15.291Z,1.30
2019-02-12T14:07:43.752Z,1.23
2019-02-12T14:10:12.294Z,1.30
2019-02-12T14:12:40.845Z,1.60
2019-02-12T14:15:14.277Z,2.30
2019-02-12T14:17:43.459Z,2.07
2019-02-12T14:20:14.251Z,2.23
2019-02-12T14:22:42.649Z,1.70
2019-02-12T14:25:13.493Z,1.60
2019-02-12T14:27:42.049Z,1.20
2019-02-12T14:30:12.960Z,1.30
2019-02-12T14:32:41.670Z,1.63
2019-02-12T14:35:11.770Z,1.73
2019-02-12T14:37:40.934Z,1.60
2019-02-12T14:40:13.717Z,1.63
2019-02-12T14:42:42.177Z,1.70
2019-02-12T14:45:20.157Z,1.73
2019-02-12T14:47:48.637Z,1.33
2019-02-12T14:50:19.202Z,1.93
2019-02-12T14:52:47.689Z,1.90
2019-02-12T14:55:16.127Z,1.80
2019-02-12T14:57:44.505Z,1.80
2019-02-12T15:00:19.998Z,1.70
2019-02-12T15:02:51.394Z,2.17
2019-02-12T15:05:20.077Z,1.97
2019-02-12T15:07:48.686Z,2.77
2019-02-12T15:10:17.086Z,1.30
2019-02-12T15:12:45.759Z,1.50
2019-02-12T15:15:14.174Z,2.13
2019-02-12T15:17:42.595Z,2.00
2019-02-12T15:20:12.165Z,2.30
2019-02-12T15:22:40.563Z,2.37
2019-02-12T15:25:12.835Z,2.17
2019-02-12T15:27:41.303Z,1.80
2019-02-12T15:30:19.340Z,1.67
2019-02-12T15:32:47.942Z,1.40
2019-02-12T15:35:16.238Z,1.80
2019-02-12T15:37:44.744Z,1.37
2019-02-12T15:40:18.713Z,1.97
2019-02-12T15:42:47.094Z,1.70
2019-02-12T15:45:20.676Z,1.90
2019-02-12T15:47:50.429Z,2.47
2019-02-12T15:50:19.044Z,2.30
2019-02-12T15:52:48.232Z,3.07
2019-02-12T15:55:19.617Z,2.77
2019-02-12T15:57:48.110Z,1.50
2019-02-12T16:00:20.465Z,1.80
2019-02-12T16:02:49.783Z,1.20
2019-02-12T16:05:18.138Z,1.60
2019-02-12T16:07:47.454Z,1.30
2019-02-12T16:10:19.682Z,1.30
2019-02-12T16:12:48.972Z,1.30
2019-02-12T16:15:21.505Z,1.30
2019-02-12T16:17:49.319Z,1.30
2019-02-12T16:20:17.685Z,1.30
2019-02-12T16:22:46.112Z,1.60
2019-02-12T16:25:15.700Z,1.40
2019-02-12T16:27:44.482Z,1.70
2019-02-12T16:30:18.976Z,1.67
2019-02-12T16:32:47.313Z,1.67
2019-02-12T16:35:16.968Z,1.27
2019-02-12T16:37:45.330Z,1.40
2019-02-12T16:40:14.765Z,1.30
2019-02-12T16:42:43.144Z,1.27
2019-02-12T16:45:17.272Z,1.27
2019-02-12T16:47:46.005Z,1.70
2019-02-12T16:50:14.397Z,1.60
2019-02-12T16:52:42.738Z,2.00
2019-02-12T16:55:11.102Z,2.07
2019-02-12T16:57:39.519Z,2.03
2019-02-12T17:00:10.966Z,2.20
2019-02-12T17:02:40.111Z,1.90
2019-02-12T17:05:10.832Z,2.30
2019-02-12T17:07:39.258Z,1.70
2019-02-12T17:10:09.742Z,1.73
2019-02-12T17:12:38.208Z,2.00
2019-02-12T17:15:11.175Z,2.20
2019-02-12T17:17:39.618Z,2.10
2019-02-12T17:20:11.505Z,2.60
2019-02-12T17:22:39.981Z,2.57
2019-02-12T17:25:10.335Z,2.27
2019-02-12T17:27:38.626Z,2.30
2019-02-12T17:30:11.983Z,2.17
2019-02-12T17:32:40.325Z,2.20
2019-02-12T17:35:09.447Z,1.97
2019-02-12T17:37:39.614Z,1.93
2019-02-12T17:40:16.427Z,2.83
2019-02-12T17:42:44.805Z,4.10
2019-02-12T17:45:17.645Z,3.42
2019-02-12T17:47:46.064Z,4.00
2019-02-12T17:50:15.157Z,3.17
2019-02-12T17:52:43.781Z,3.40
2019-02-12T17:55:12.129Z,3.37
2019-02-12T17:57:40.486Z,3.30
2019-02-12T18:00:18.111Z,3.37
2019-02-12T18:02:46.716Z,3.57
2019-02-12T18:05:15.147Z,3.40
2019-02-12T18:07:43.463Z,3.37
2019-02-12T18:10:12.439Z,3.30
2019-02-12T18:12:40.849Z,3.60
2019-02-12T18:15:13.458Z,3.53
2019-02-12T18:17:41.810Z,4.33
2019-02-12T18:20:11.902Z,3.57
2019-02-12T18:22:40.529Z,3.90
2019-02-12T18:25:10.394Z,8.80
2019-02-12T18:27:39.334Z,3.53
2019-02-12T18:30:15.363Z,3.90
2019-02-12T18:32:43.968Z,4.13
2019-02-12T18:35:12.497Z,5.13
2019-02-12T18:37:40.834Z,4.53
2019-02-12T18:40:14.519Z,4.30
2019-02-12T18:42:43.221Z,4.33
2019-02-12T18:45:16.905Z,3.90
2019-02-12T18:47:45.618Z,5.90
2019-02-12T18:50:14.200Z,4.90
2019-02-12T18:52:42.663Z,4.20
2019-02-12T18:55:15.794Z,3.97
2019-02-12T18:57:44.399Z,3.50
2019-02-12T19:00:15.778Z,3.47
2019-02-12T19:02:44.262Z,2.93
2019-02-12T19:05:13.099Z,3.27
2019-02-12T19:07:42.936Z,2.60
2019-02-12T19:10:13.402Z,16.13
2019-02-12T19:12:41.906Z,5.10
2019-02-12T19:15:12.504Z,6.10
2019-02-12T19:17:41.613Z,4.10
2019-02-12T19:20:12.451Z,5.13
2019-02-12T19:22:40.948Z,4.40
2019-02-12T19:25:10.499Z,4.13
2019-02-12T19:27:40.638Z,4.87
2019-02-12T19:30:12.173Z,4.20
2019-02-12T19:32:40.830Z,7.50
2019-02-12T19:35:10.715Z,5.97
2019-02-12T19:37:39.376Z,5.30
2019-02-12T19:40:12.018Z,3.97
2019-02-12T19:42:40.648Z,4.07
2019-02-12T19:45:14.330Z,5.33
2019-02-12T19:47:42.887Z,5.50
2019-02-12T19:50:12.238Z,4.37
2019-02-12T19:52:40.672Z,3.37
2019-02-12T19:55:11.797Z,2.83
2019-02-12T19:57:40.544Z,2.90
2019-02-12T20:00:16.713Z,3.10
2019-02-12T20:02:45.653Z,2.83
2019-02-12T20:05:14.219Z,3.37
2019-02-12T20:07:43.760Z,3.93
2019-02-12T20:10:13.852Z,3.40
2019-02-12T20:12:42.533Z,2.53
2019-02-12T20:15:19.409Z,2.37
2019-02-12T20:17:47.862Z,3.07
2019-02-12T20:20:16.443Z,3.03
2019-02-12T20:22:44.933Z,2.37
2019-02-12T20:25:13.779Z,2.80
2019-02-12T20:27:42.146Z,2.70
2019-02-12T20:30:19.867Z,3.37
2019-02-12T20:32:48.607Z,4.27
2019-02-12T20:35:23.799Z,2.70
2019-02-12T20:37:52.800Z,2.80
2019-02-12T20:40:21.583Z,2.93
2019-02-12T20:42:50.185Z,3.00
2019-02-12T20:45:19.596Z,3.13
2019-02-12T20:47:48.246Z,3.17
2019-02-12T20:50:18.962Z,3.70
2019-02-12T20:52:47.333Z,3.77
2019-02-12T20:55:15.872Z,4.57
2019-02-12T20:57:44.403Z,5.17
2019-02-12T21:00:20.437Z,4.27
2019-02-12T21:02:48.913Z,4.30
2019-02-12T21:05:18.685Z,5.77
2019-02-12T21:07:47.450Z,4.40
2019-02-12T21:10:20.316Z,4.23
2019-02-12T21:12:48.942Z,3.93
2019-02-12T21:15:20.048Z,3.83
2019-02-12T21:17:48.617Z,3.97
2019-02-12T21:20:16.992Z,3.97
2019-02-12T21:22:45.660Z,3.77
2019-02-12T21:25:14.369Z,4.17
2019-02-12T21:27:42.861Z,4.40
2019-02-12T21:30:17.366Z,3.53
2019-02-12T21:32:45.866Z,3.70
2019-02-12T21:35:14.371Z,3.57
2019-02-12T21:37:43.071Z,4.00
2019-02-12T21:40:14.447Z,4.30
2019-02-12T21:42:42.966Z,6.00
2019-02-12T21:45:12.789Z,6.20
2019-02-12T21:47:42.076Z,4.13
2019-02-12T21:50:11.988Z,6.63
2019-02-12T21:52:40.349Z,3.53
2019-02-12T21:55:14.170Z,3.50
2019-02-12T21:57:43.028Z,3.43
2019-02-12T22:00:17.707Z,3.47
2019-02-12T22:02:46.236Z,2.80
2019-02-12T22:05:15.718Z,3.60
2019-02-12T22:07:44.037Z,2.77
2019-02-12T22:10:18.782Z,4.47
2019-02-12T22:12:47.158Z,4.90
2019-02-12T22:15:15.923Z,4.00
2019-02-12T22:17:44.413Z,3.57
2019-02-12T22:20:14.965Z,3.30
2019-02-12T22:22:43.375Z,3.70
2019-02-12T22:25:11.885Z,3.87
2019-02-12T22:27:40.865Z,3.60
2019-02-12T22:30:15.075Z,3.80
2019-02-12T22:32:43.493Z,3.80
2019-02-12T22:35:14.599Z,3.50
2019-02-12T22:37:43.283Z,3.83
2019-02-12T22:40:15.925Z,4.90
2019-02-12T22:42:44.584Z,4.70
2019-02-12T22:45:18.467Z,4.90
2019-02-12T22:47:46.779Z,4.17
2019-02-12T22:50:15.198Z,3.90
2019-02-12T22:52:43.592Z,4.27
2019-02-12T22:55:12.307Z,4.93
2019-02-12T22:57:48.598Z,4.83
2019-02-12T23:00:27.207Z,5.23
2019-02-12T23:02:55.643Z,4.43
2019-02-12T23:05:24.223Z,5.30
2019-02-12T23:07:52.854Z,4.37
2019-02-12T23:10:21.282Z,12.73
2019-02-12T23:12:49.889Z,4.90
2019-02-12T23:15:18.550Z,3.70
2019-02-12T23:17:47.147Z,5.30
2019-02-12T23:20:15.578Z,4.90
2019-02-12T23:22:44.011Z,4.17
2019-02-12T23:25:12.479Z,4.43
2019-02-12T23:27:40.828Z,3.93
2019-02-12T23:30:10.192Z,3.93
2019-02-12T23:32:38.736Z,3.60
2019-02-12T23:35:09.983Z,4.10
2019-02-12T23:37:41.041Z,4.83
2019-02-12T23:40:09.364Z,4.53
2019-02-12T23:42:37.735Z,3.60
2019-02-12T23:45:07.941Z,4.20
2019-02-12T23:47:36.285Z,3.70
2019-02-12T23:50:06.936Z,3.80
2019-02-12T23:52:35.523Z,4.43
2019-02-12T23:55:04.539Z,4.40
2019-02-12T23:57:32.909Z,4.03
